createdAt,value
2022-10-08T00:00:20.349Z,1008.84
2022-10-08T00:01:20.342Z,1008.84
2022-10-08T00:02:20.351Z,1008.84
2022-10-08T00:03:20.315Z,1008.89
2022-10-08T00:04:20.349Z,1008.86
2022-10-08T00:05:20.291Z,1008.88
2022-10-08T00:06:20.278Z,1008.88
2022-10-08T00:07:20.263Z,1008.92
2022-10-08T00:08:20.273Z,1008.87
2022-10-08T00:09:20.239Z,1008.89
2022-10-08T00:10:20.242Z,1008.91
2022-10-08T00:11:20.236Z,1008.86
2022-10-08T00:12:20.215Z,1008.86
2022-10-08T00:13:20.244Z,1008.89
2022-10-08T00:14:20.226Z,1008.82
2022-10-08T00:15:20.165Z,1008.84
2022-10-08T00:16:20.234Z,1008.84
2022-10-08T00:17:20.134Z,1008.82
2022-10-08T00:18:20.139Z,1008.85
2022-10-08T00:19:20.100Z,1008.82
2022-10-08T00:20:20.143Z,1008.78
2022-10-08T00:21:20.086Z,1008.82
2022-10-08T00:22:20.077Z,1008.79
2022-10-08T00:23:20.048Z,1008.78
2022-10-08T00:24:20.026Z,1008.81
2022-10-08T00:25:20.038Z,1008.84
2022-10-08T00:26:20.010Z,1008.87
2022-10-08T00:27:19.998Z,1008.83
2022-10-08T00:28:20.000Z,1008.85
2022-10-08T00:29:19.965Z,1008.82
2022-10-08T00:30:19.997Z,1008.84
2022-10-08T00:31:20.051Z,1008.79
2022-10-08T00:32:19.927Z,1008.80
2022-10-08T00:33:19.911Z,1008.77
2022-10-08T00:34:19.897Z,1008.76
2022-10-08T00:35:19.884Z,1008.72
2022-10-08T00:36:19.882Z,1008.72
2022-10-08T00:37:19.859Z,1008.77
2022-10-08T00:38:19.847Z,1008.75
2022-10-08T00:39:19.872Z,1008.77
2022-10-08T00:40:19.869Z,1008.75
2022-10-08T00:41:19.854Z,1008.75
2022-10-08T00:42:19.804Z,1008.78
2022-10-08T00:43:23.923Z,1008.76
2022-10-08T00:44:19.755Z,1008.72
2022-10-08T00:45:19.749Z,1008.82
2022-10-08T00:46:19.728Z,1008.78
2022-10-08T00:47:19.734Z,1008.77
2022-10-08T00:48:19.712Z,1008.75
2022-10-08T00:49:19.757Z,1008.75
2022-10-08T00:50:19.681Z,1008.70
2022-10-08T00:51:19.668Z,1008.76
2022-10-08T00:52:19.666Z,1008.74
2022-10-08T00:53:19.655Z,1008.71
2022-10-08T00:54:19.612Z,1008.70
2022-10-08T00:55:19.613Z,1008.67
2022-10-08T00:56:19.622Z,1008.66
2022-10-08T00:57:19.611Z,1008.67
2022-10-08T00:58:19.616Z,1008.65
2022-10-08T00:59:19.568Z,1008.61
2022-10-08T01:00:19.545Z,1008.59
2022-10-08T01:01:19.560Z,1008.60
2022-10-08T01:02:19.718Z,1008.55
2022-10-08T01:03:19.580Z,1008.52
2022-10-08T01:04:19.484Z,1008.53
2022-10-08T01:05:19.504Z,1008.52
2022-10-08T01:06:19.462Z,1008.51
2022-10-08T01:07:19.460Z,1008.54
2022-10-08T01:08:19.464Z,1008.52
2022-10-08T01:09:19.759Z,1008.53
2022-10-08T01:10:19.421Z,1008.51
2022-10-08T01:11:19.413Z,1008.53
2022-10-08T01:12:19.406Z,1008.47
2022-10-08T01:13:19.404Z,1008.46
2022-10-08T01:14:19.362Z,1008.45
2022-10-08T01:15:19.365Z,1008.41
2022-10-08T01:16:19.379Z,1008.45
2022-10-08T01:17:19.325Z,1008.47
2022-10-08T01:18:19.313Z,1008.47
2022-10-08T01:19:19.356Z,1008.47
2022-10-08T01:20:19.290Z,1008.44
2022-10-08T01:21:19.280Z,1008.47
2022-10-08T01:22:19.276Z,1008.46
2022-10-08T01:23:19.233Z,1008.45
2022-10-08T01:24:19.224Z,1008.44
2022-10-08T01:25:19.231Z,1008.44
2022-10-08T01:26:19.220Z,1008.45
2022-10-08T01:27:19.234Z,1008.42
2022-10-08T01:28:19.265Z,1008.41
2022-10-08T01:29:19.155Z,1008.39
2022-10-08T01:30:19.168Z,1008.38
2022-10-08T01:31:19.260Z,1008.41
2022-10-08T01:32:19.139Z,1008.32
2022-10-08T01:33:19.122Z,1008.28
2022-10-08T01:34:19.082Z,1008.28
2022-10-08T01:35:19.152Z,1008.29
2022-10-08T01:36:19.121Z,1008.26
2022-10-08T01:37:19.078Z,1008.23
2022-10-08T01:38:19.055Z,1008.26
2022-10-08T01:39:19.057Z,1008.22
2022-10-08T01:40:19.035Z,1008.33
2022-10-08T01:41:19.023Z,1008.33
2022-10-08T01:42:19.075Z,1008.39
2022-10-08T01:43:18.966Z,1008.38
2022-10-08T01:44:18.954Z,1008.38
2022-10-08T01:45:18.931Z,1008.40
2022-10-08T01:46:18.997Z,1008.43
2022-10-08T01:47:18.937Z,1008.38
2022-10-08T01:48:18.909Z,1008.43
2022-10-08T01:49:18.903Z,1008.39
2022-10-08T01:50:18.871Z,1008.39
2022-10-08T01:51:18.853Z,1008.43
2022-10-08T01:52:18.872Z,1008.39
2022-10-08T01:53:18.837Z,1008.41
2022-10-08T01:54:18.811Z,1008.35
2022-10-08T01:55:18.799Z,1008.35
2022-10-08T01:56:18.782Z,1008.26
2022-10-08T01:57:17.803Z,1008.31
2022-10-08T01:58:18.772Z,1008.38
2022-10-08T01:59:18.781Z,1008.32
2022-10-08T02:00:18.744Z,1008.35
2022-10-08T02:01:18.800Z,1008.33
2022-10-08T02:02:18.808Z,1008.36
2022-10-08T02:03:18.694Z,1008.41
2022-10-08T02:04:18.677Z,1008.34
2022-10-08T02:05:18.669Z,1008.31
2022-10-08T02:06:18.677Z,1008.30
2022-10-08T02:07:18.636Z,1008.30
2022-10-08T02:08:18.678Z,1008.32
2022-10-08T02:09:18.618Z,1008.31
2022-10-08T02:10:18.606Z,1008.35
2022-10-08T02:11:18.596Z,1008.36
2022-10-08T02:12:18.567Z,1008.37
2022-10-08T02:13:18.577Z,1008.34
2022-10-08T02:14:18.553Z,1008.35
2022-10-08T02:15:18.535Z,1008.37
2022-10-08T02:16:18.524Z,1008.36
2022-10-08T02:17:18.528Z,1008.39
2022-10-08T02:18:18.578Z,1008.40
2022-10-08T02:19:18.511Z,1008.41
2022-10-08T02:20:18.543Z,1008.44
2022-10-08T02:21:18.508Z,1008.46
2022-10-08T02:22:18.576Z,1008.51
2022-10-08T02:23:18.439Z,1008.51
2022-10-08T02:24:18.418Z,1008.52
2022-10-08T02:25:18.406Z,1008.51
2022-10-08T02:26:18.381Z,1008.54
2022-10-08T02:27:18.398Z,1008.54
2022-10-08T02:28:18.428Z,1008.56
2022-10-08T02:29:18.341Z,1008.49
2022-10-08T02:30:18.330Z,1008.52
2022-10-08T02:31:18.364Z,1008.58
2022-10-08T02:32:18.329Z,1008.53
2022-10-08T02:33:18.314Z,1008.57
2022-10-08T02:34:18.334Z,1008.57
2022-10-08T02:35:18.274Z,1008.61
2022-10-08T02:36:18.242Z,1008.59
2022-10-08T02:37:18.226Z,1008.57
2022-10-08T02:38:18.237Z,1008.60
2022-10-08T02:39:18.244Z,1008.58
2022-10-08T02:40:18.198Z,1008.58
2022-10-08T02:41:18.174Z,1008.58
2022-10-08T02:42:18.209Z,1008.57
2022-10-08T02:43:18.158Z,1008.61
2022-10-08T02:44:18.162Z,1008.55
2022-10-08T02:45:18.138Z,1008.55
2022-10-08T02:46:18.227Z,1008.60
2022-10-08T02:47:18.104Z,1008.54
2022-10-08T02:48:18.105Z,1008.51
2022-10-08T02:49:18.099Z,1008.52
2022-10-08T02:50:18.079Z,1008.53
2022-10-08T02:51:18.038Z,1008.49
2022-10-08T02:52:18.039Z,1008.51
2022-10-08T02:53:18.032Z,1008.48
2022-10-08T02:54:17.999Z,1008.51
2022-10-08T02:55:18.003Z,1008.51
2022-10-08T02:56:17.974Z,1008.50
2022-10-08T02:57:18.011Z,1008.49
2022-10-08T02:58:17.972Z,1008.53
2022-10-08T02:59:17.932Z,1008.52
2022-10-08T03:00:17.939Z,1008.54
2022-10-08T03:01:18.025Z,1008.54
2022-10-08T03:02:17.959Z,1008.54
2022-10-08T03:03:17.893Z,1008.54
2022-10-08T03:04:17.911Z,1008.55
2022-10-08T03:05:17.857Z,1008.57
2022-10-08T03:06:17.868Z,1008.54
2022-10-08T03:07:17.818Z,1008.52
2022-10-08T03:08:17.809Z,1008.54
2022-10-08T03:09:17.812Z,1008.55
2022-10-08T03:22:17.143Z,1008.69
2022-10-08T03:23:18.117Z,1008.65
2022-10-08T03:24:18.120Z,1008.62
2022-10-08T03:25:18.097Z,1008.63
2022-10-08T03:26:18.103Z,1008.65
2022-10-08T03:27:18.072Z,1008.59
2022-10-08T03:28:18.123Z,1008.68
2022-10-08T03:29:18.073Z,1008.64
2022-10-08T03:30:18.054Z,1008.71
2022-10-08T03:31:18.104Z,1008.70
2022-10-08T03:32:18.010Z,1008.68
2022-10-08T03:33:17.992Z,1008.70
2022-10-08T03:34:17.989Z,1008.70
2022-10-08T03:35:17.959Z,1008.71
2022-10-08T03:36:17.978Z,1008.71
2022-10-08T03:37:17.938Z,1008.72
2022-10-08T03:38:17.950Z,1008.74
2022-10-08T03:39:17.941Z,1008.71
2022-10-08T03:40:17.903Z,1008.74
2022-10-08T03:41:17.876Z,1008.71
2022-10-08T03:42:17.923Z,1008.70
2022-10-08T03:43:17.872Z,1008.75
2022-10-08T03:44:17.887Z,1008.79
2022-10-08T04:07:18.152Z,1009.12
2022-10-08T04:08:17.322Z,1009.09
2022-10-08T04:09:17.328Z,1009.09
2022-10-08T04:10:17.333Z,1009.07
2022-10-08T04:11:17.294Z,1009.05
2022-10-08T04:12:17.300Z,1009.02
2022-10-08T04:13:17.297Z,1009.00
2022-10-08T04:14:17.274Z,1008.88
2022-10-08T04:15:17.273Z,1008.90
2022-10-08T04:16:17.305Z,1008.94
2022-10-08T04:17:17.221Z,1008.89
2022-10-08T04:18:17.216Z,1008.99
2022-10-08T04:19:17.192Z,1008.97
2022-10-08T04:20:17.195Z,1009.00
2022-10-08T04:21:17.181Z,1008.95
2022-10-08T04:22:17.165Z,1008.91
2022-10-08T04:40:46.538Z,1009.04
2022-10-08T04:41:47.520Z,1009.02
2022-10-08T04:42:47.821Z,1009.04
2022-10-08T04:43:47.463Z,1009.04
2022-10-08T04:44:47.516Z,1009.06
2022-10-08T04:45:47.447Z,1009.05
2022-10-08T04:46:47.520Z,1009.03
2022-10-08T04:47:47.496Z,1009.03
2022-10-08T04:48:47.443Z,1009.03
2022-10-08T04:49:47.391Z,1009.05
2022-10-08T04:50:47.412Z,1009.08
2022-10-08T04:51:47.421Z,1009.12
2022-10-08T04:52:47.636Z,1009.10
2022-10-08T04:53:47.335Z,1009.11
2022-10-08T04:54:47.525Z,1009.10
2022-10-08T04:56:08.309Z,1009.10
2022-10-08T05:10:15.527Z,1009.30
2022-10-08T05:11:16.476Z,1009.28
2022-10-08T05:12:16.466Z,1009.29
2022-10-08T05:13:16.500Z,1009.32
2022-10-08T05:14:15.443Z,1009.31
2022-10-08T05:20:32.221Z,1009.43
2022-10-08T05:25:07.908Z,1009.44
2022-10-08T05:26:08.850Z,1009.40
2022-10-08T05:28:23.604Z,1009.41
2022-10-08T05:29:24.581Z,1009.42
2022-10-08T05:30:24.548Z,1009.48
2022-10-08T05:31:24.631Z,1009.52
2022-10-08T05:32:24.535Z,1009.54
2022-10-08T05:33:24.481Z,1009.52
2022-10-08T05:44:12.691Z,1009.71
2022-10-08T05:45:13.590Z,1009.72
2022-10-08T05:46:16.703Z,1009.73
2022-10-08T05:47:13.554Z,1009.71
2022-10-08T05:48:13.551Z,1009.68
2022-10-08T05:49:13.522Z,1009.66
2022-10-08T05:50:15.253Z,1009.65
2022-10-08T05:51:13.535Z,1009.72
2022-10-08T05:52:13.563Z,1009.69
2022-10-08T05:53:13.521Z,1009.75
2022-10-08T05:54:13.463Z,1009.78
2022-10-08T05:55:13.461Z,1009.79
2022-10-08T05:56:13.491Z,1009.87
2022-10-08T05:57:16.523Z,1009.84
2022-10-08T05:58:13.457Z,1009.85
2022-10-08T05:59:13.402Z,1009.86
2022-10-08T06:00:13.440Z,1009.87
2022-10-08T06:01:13.377Z,1009.92
2022-10-08T06:02:13.353Z,1009.89
2022-10-08T06:03:13.420Z,1009.95
2022-10-08T06:04:15.427Z,1009.98
2022-10-08T06:05:13.332Z,1009.95
2022-10-08T06:06:13.360Z,1010.01
2022-10-08T06:07:13.372Z,1010.01
2022-10-08T06:08:34.299Z,1010.10
2022-10-08T06:09:13.305Z,1010.04
2022-10-08T06:10:14.465Z,1010.03
2022-10-08T06:11:13.274Z,1010.10
2022-10-08T06:12:13.229Z,1010.12
2022-10-08T06:13:13.208Z,1010.13
2022-10-08T06:14:13.197Z,1010.15
2022-10-08T06:15:13.178Z,1010.11
2022-10-08T06:16:13.278Z,1010.11
2022-10-08T06:17:13.267Z,1010.16
2022-10-08T06:18:13.150Z,1010.17
2022-10-08T06:19:13.134Z,1010.12
2022-10-08T06:20:13.163Z,1010.15
2022-10-08T06:21:13.135Z,1010.15
2022-10-08T06:22:13.110Z,1010.16
2022-10-08T06:23:13.086Z,1010.18
2022-10-08T06:24:13.098Z,1010.22
2022-10-08T06:25:13.046Z,1010.26
2022-10-08T06:26:13.057Z,1010.25
2022-10-08T06:27:13.088Z,1010.27
2022-10-08T06:28:13.077Z,1010.29
2022-10-08T06:29:13.036Z,1010.27
2022-10-08T06:30:35.879Z,1010.33
2022-10-08T06:31:13.029Z,1010.31
2022-10-08T06:32:13.016Z,1010.34
2022-10-08T06:33:12.999Z,1010.40
2022-10-08T06:34:12.971Z,1010.34
2022-10-08T06:35:12.909Z,1010.40
2022-10-08T06:36:12.917Z,1010.39
2022-10-08T06:37:12.893Z,1010.42
2022-10-08T06:38:12.926Z,1010.48
2022-10-08T06:39:12.906Z,1010.48
2022-10-08T06:40:12.850Z,1010.49
2022-10-08T06:41:12.849Z,1010.49
2022-10-08T06:42:12.856Z,1010.53
2022-10-08T06:43:12.866Z,1010.55
2022-10-08T06:44:12.795Z,1010.57
2022-10-08T06:45:12.777Z,1010.58
2022-10-08T06:46:13.112Z,1010.61
2022-10-08T06:47:12.823Z,1010.55
2022-10-08T06:48:12.844Z,1010.59
2022-10-08T06:49:12.747Z,1010.63
2022-10-08T06:50:15.840Z,1010.59
2022-10-08T06:51:12.788Z,1010.64
2022-10-08T06:52:12.730Z,1010.67
2022-10-08T06:53:12.723Z,1010.72
2022-10-08T06:54:12.670Z,1010.75
2022-10-08T06:55:12.709Z,1010.75
2022-10-08T07:04:51.107Z,1010.77
2022-10-08T07:05:52.090Z,1010.72
2022-10-08T07:06:52.206Z,1010.78
2022-10-08T07:07:52.064Z,1010.76
2022-10-08T07:08:52.026Z,1010.80
2022-10-08T07:09:52.094Z,1010.87
2022-10-08T07:10:52.014Z,1010.82
2022-10-08T07:11:51.988Z,1010.85
2022-10-08T07:12:51.972Z,1010.90
2022-10-08T07:13:51.985Z,1010.87
2022-10-08T07:14:52.067Z,1010.91
2022-10-08T07:15:51.981Z,1010.88
2022-10-08T07:17:00.021Z,1010.92
2022-10-08T07:17:51.883Z,1010.93
2022-10-08T07:18:51.879Z,1010.98
2022-10-08T07:19:51.881Z,1010.99
2022-10-08T07:20:51.882Z,1011.03
2022-10-08T07:21:51.876Z,1011.04
2022-10-08T07:22:51.836Z,1011.02
2022-10-08T07:23:51.806Z,1011.06
2022-10-08T07:24:51.792Z,1011.09
2022-10-08T07:25:51.766Z,1011.12
2022-10-08T07:26:51.785Z,1011.10
2022-10-08T07:27:51.903Z,1011.13
2022-10-08T07:28:51.783Z,1011.13
2022-10-08T07:29:51.730Z,1011.15
2022-10-08T07:30:51.814Z,1011.19
2022-10-08T07:31:51.762Z,1011.20
2022-10-08T07:32:51.715Z,1011.27
2022-10-08T07:33:51.676Z,1011.27
2022-10-08T07:34:51.724Z,1011.32
2022-10-08T07:35:51.641Z,1011.37
2022-10-08T07:36:52.136Z,1011.41
2022-10-08T07:37:51.672Z,1011.43
2022-10-08T07:38:51.771Z,1011.48
2022-10-08T07:39:51.609Z,1011.46
2022-10-08T07:40:51.600Z,1011.45
2022-10-08T07:42:18.018Z,1011.46
2022-10-08T07:45:33.746Z,1011.50
2022-10-08T07:46:36.916Z,1011.57
2022-10-08T07:47:52.615Z,1011.53
2022-10-08T07:48:34.074Z,1011.46
2022-10-08T07:49:31.600Z,1011.49
2022-10-08T07:50:31.517Z,1011.46
2022-10-08T07:51:31.562Z,1011.52
2022-10-08T07:52:31.467Z,1011.50
2022-10-08T07:53:31.437Z,1011.52
2022-10-08T07:54:31.435Z,1011.55
2022-10-08T07:55:31.434Z,1011.57
2022-10-08T07:56:31.419Z,1011.54
2022-10-08T07:57:31.414Z,1011.57
2022-10-08T07:58:31.447Z,1011.55
2022-10-08T07:59:31.391Z,1011.54
2022-10-08T08:00:31.400Z,1011.55
2022-10-08T08:01:31.458Z,1011.50
2022-10-08T08:02:31.406Z,1011.52
2022-10-08T08:03:31.323Z,1011.55
2022-10-08T08:04:31.295Z,1011.55
2022-10-08T08:05:31.322Z,1011.58
2022-10-08T08:06:31.270Z,1011.60
2022-10-08T08:07:31.299Z,1011.60
2022-10-08T08:08:31.244Z,1011.63
2022-10-08T08:09:31.224Z,1011.66
2022-10-08T08:10:31.204Z,1011.63
2022-10-08T08:11:31.428Z,1011.63
2022-10-08T08:12:31.229Z,1011.71
2022-10-08T08:13:36.545Z,1011.69
2022-10-08T08:14:31.240Z,1011.72
2022-10-08T08:15:31.162Z,1011.74
2022-10-08T08:16:31.222Z,1011.79
2022-10-08T08:17:31.193Z,1011.80
2022-10-08T08:18:31.124Z,1011.78
2022-10-08T08:19:31.317Z,1011.81
2022-10-08T08:20:31.077Z,1011.80
2022-10-08T08:21:31.210Z,1011.83
2022-10-08T08:22:31.079Z,1011.87
2022-10-08T08:23:31.391Z,1011.86
2022-10-08T08:24:31.021Z,1011.89
2022-10-08T08:25:31.015Z,1011.92
2022-10-08T08:26:30.998Z,1011.94
2022-10-08T08:27:31.000Z,1011.97
2022-10-08T08:28:31.430Z,1011.97
2022-10-08T08:29:30.971Z,1011.96
2022-10-08T08:30:30.975Z,1012.02
2022-10-08T08:31:31.060Z,1011.98
2022-10-08T08:32:31.274Z,1011.98
2022-10-08T08:33:31.082Z,1011.97
2022-10-08T08:34:31.537Z,1012.01
2022-10-08T08:35:31.768Z,1012.01
2022-10-08T08:36:31.172Z,1012.02
2022-10-08T08:37:31.172Z,1012.07
2022-10-08T08:38:30.086Z,1012.04
2022-10-08T08:39:31.090Z,1012.06
2022-10-08T08:40:30.862Z,1012.07
2022-10-08T08:41:30.815Z,1012.16
2022-10-08T08:42:30.803Z,1012.16
2022-10-08T08:43:30.769Z,1012.16
2022-10-08T08:44:30.770Z,1012.18
2022-10-08T08:45:47.452Z,1012.19
2022-10-08T08:46:30.846Z,1012.22
2022-10-08T08:47:30.728Z,1012.25
2022-10-08T08:48:30.758Z,1012.21
2022-10-08T08:49:30.726Z,1012.27
2022-10-08T08:50:30.670Z,1012.22
2022-10-08T08:51:30.670Z,1012.23
2022-10-08T08:52:30.640Z,1012.25
2022-10-08T08:53:30.655Z,1012.22
2022-10-08T08:54:30.658Z,1012.23
2022-10-08T08:55:30.599Z,1012.22
2022-10-08T08:56:30.641Z,1012.20
2022-10-08T08:57:30.629Z,1012.25
2022-10-08T08:58:30.564Z,1012.26
2022-10-08T08:59:30.558Z,1012.23
2022-10-08T09:00:30.579Z,1012.27
2022-10-08T09:01:30.622Z,1012.28
2022-10-08T09:02:30.512Z,1012.25
2022-10-08T09:03:30.497Z,1012.26
2022-10-08T09:04:30.470Z,1012.29
2022-10-08T09:05:30.516Z,1012.30
2022-10-08T09:06:30.537Z,1012.30
2022-10-08T09:07:30.485Z,1012.23
2022-10-08T09:08:30.441Z,1012.29
2022-10-08T09:09:30.413Z,1012.32
2022-10-08T09:17:42.643Z,1012.36
2022-10-08T09:18:45.485Z,1012.39
2022-10-08T09:19:43.673Z,1012.39
2022-10-08T09:20:43.603Z,1012.38
2022-10-08T09:22:10.673Z,1012.42
2022-10-08T09:22:43.657Z,1012.46
2022-10-08T09:35:19.836Z,1012.52
2022-10-08T09:45:25.339Z,1012.57
2022-10-08T09:46:24.701Z,1012.62
2022-10-08T09:47:24.611Z,1012.67
2022-10-08T09:48:26.356Z,1012.58
2022-10-08T09:49:24.636Z,1012.59
2022-10-08T09:50:24.733Z,1012.59
2022-10-08T09:51:24.594Z,1012.59
2022-10-08T09:52:24.603Z,1012.61
2022-10-08T09:53:24.581Z,1012.62
2022-10-08T09:54:24.563Z,1012.71
2022-10-08T09:55:24.511Z,1012.67
2022-10-08T09:56:24.524Z,1012.65
2022-10-08T09:57:24.514Z,1012.71
2022-10-08T09:58:24.457Z,1012.72
2022-10-08T09:59:24.485Z,1012.70
2022-10-08T10:00:46.491Z,1012.71
2022-10-08T10:01:24.477Z,1012.72
2022-10-08T10:07:04.775Z,1012.77
2022-10-08T10:08:05.810Z,1012.76
2022-10-08T10:09:05.759Z,1012.73
2022-10-08T10:10:05.736Z,1012.69
2022-10-08T10:11:05.699Z,1012.72
2022-10-08T10:12:05.667Z,1012.74
2022-10-08T10:13:05.716Z,1012.76
2022-10-08T10:14:05.714Z,1012.79
2022-10-08T10:15:05.622Z,1012.74
2022-10-08T10:16:05.661Z,1012.73
2022-10-08T10:17:05.749Z,1012.71
2022-10-08T10:18:05.614Z,1012.68
2022-10-08T10:19:05.592Z,1012.73
2022-10-08T10:20:05.599Z,1012.69
2022-10-08T10:21:05.604Z,1012.67
2022-10-08T10:22:05.535Z,1012.66
2022-10-08T10:23:05.523Z,1012.62
2022-10-08T10:24:05.616Z,1012.72
2022-10-08T10:25:05.532Z,1012.70
2022-10-08T10:26:06.810Z,1012.67
2022-10-08T10:27:05.493Z,1012.68
2022-10-08T10:28:05.534Z,1012.65
2022-10-08T10:29:05.438Z,1012.69
2022-10-08T10:30:05.464Z,1012.68
2022-10-08T10:31:05.440Z,1012.73
2022-10-08T10:32:05.465Z,1012.74
2022-10-08T10:33:05.380Z,1012.72
2022-10-08T10:34:05.372Z,1012.63
2022-10-08T10:35:05.353Z,1012.65
2022-10-08T10:36:05.385Z,1012.65
2022-10-08T10:37:05.354Z,1012.58
2022-10-08T10:38:05.405Z,1012.61
2022-10-08T10:39:05.362Z,1012.69
2022-10-08T10:40:05.360Z,1012.67
2022-10-08T10:41:05.266Z,1012.62
2022-10-08T10:42:05.277Z,1012.59
2022-10-08T10:43:05.256Z,1012.66
2022-10-08T10:44:05.268Z,1012.58
2022-10-08T10:45:05.207Z,1012.65
2022-10-08T10:46:05.295Z,1012.65
2022-10-08T10:47:05.226Z,1012.64
2022-10-08T10:48:05.198Z,1012.63
2022-10-08T10:49:05.189Z,1012.65
2022-10-08T10:50:05.160Z,1012.69
2022-10-08T10:51:05.118Z,1012.68
2022-10-08T10:52:05.126Z,1012.67
2022-10-08T10:53:05.109Z,1012.68
2022-10-08T10:54:05.166Z,1012.69
2022-10-08T10:55:05.124Z,1012.69
2022-10-08T10:56:05.067Z,1012.77
2022-10-08T10:57:05.041Z,1012.73
2022-10-08T10:58:05.077Z,1012.72
2022-10-08T10:59:05.063Z,1012.68
2022-10-08T11:00:05.077Z,1012.75
2022-10-08T11:01:05.089Z,1012.83
2022-10-08T11:02:05.014Z,1012.80
2022-10-08T11:03:05.095Z,1012.72
2022-10-08T11:04:05.011Z,1012.74
2022-10-08T11:05:04.934Z,1012.69
2022-10-08T11:06:04.981Z,1012.73
2022-10-08T11:07:04.941Z,1012.67
2022-10-08T11:08:04.936Z,1012.72
2022-10-08T11:09:04.906Z,1012.70
2022-10-08T11:10:04.886Z,1012.60
2022-10-08T11:11:04.878Z,1012.64
2022-10-08T11:12:04.962Z,1012.63
2022-10-08T11:13:04.904Z,1012.62
2022-10-08T11:14:04.852Z,1012.59
2022-10-08T11:15:04.867Z,1012.64
2022-10-08T11:16:04.919Z,1012.58
2022-10-08T11:17:04.787Z,1012.58
2022-10-08T11:18:04.787Z,1012.69
2022-10-08T11:19:04.804Z,1012.65
2022-10-08T11:20:04.846Z,1012.62
2022-10-08T11:21:04.750Z,1012.60
2022-10-08T11:22:04.714Z,1012.64
2022-10-08T11:23:04.746Z,1012.64
2022-10-08T11:24:04.706Z,1012.65
2022-10-08T11:25:04.680Z,1012.66
2022-10-08T11:26:22.007Z,1012.66
2022-10-08T11:27:04.662Z,1012.55
2022-10-08T11:28:04.705Z,1012.60
2022-10-08T11:29:13.701Z,1012.67
2022-10-08T11:30:04.678Z,1012.61
2022-10-08T11:31:04.705Z,1012.62
2022-10-08T11:32:04.613Z,1012.54
2022-10-08T11:33:06.764Z,1012.49
2022-10-08T11:34:04.624Z,1012.59
2022-10-08T11:35:04.644Z,1012.58
2022-10-08T11:36:05.572Z,1012.62
2022-10-08T11:37:04.540Z,1012.57
2022-10-08T11:38:04.725Z,1012.59
2022-10-08T11:39:04.560Z,1012.56
2022-10-08T11:40:04.530Z,1012.57
2022-10-08T11:41:04.552Z,1012.54
2022-10-08T11:42:04.455Z,1012.61
2022-10-08T11:43:04.477Z,1012.65
2022-10-08T11:44:04.413Z,1012.57
2022-10-08T11:45:04.410Z,1012.63
2022-10-08T11:46:04.451Z,1012.65
2022-10-08T11:47:04.398Z,1012.67
2022-10-08T11:48:09.728Z,1012.64
2022-10-08T11:49:04.398Z,1012.68
2022-10-08T11:50:04.433Z,1012.68
2022-10-08T11:51:04.323Z,1012.55
2022-10-08T11:52:04.309Z,1012.71
2022-10-08T11:53:03.331Z,1012.62
2022-10-08T11:56:34.443Z,1012.61
2022-10-08T11:58:02.978Z,1012.65
2022-10-08T11:58:34.257Z,1012.72
2022-10-08T11:59:34.268Z,1012.65
2022-10-08T12:00:34.309Z,1012.70
2022-10-08T12:01:34.314Z,1012.68
2022-10-08T12:02:34.405Z,1012.67
2022-10-08T12:03:34.403Z,1012.67
2022-10-08T12:04:34.240Z,1012.68
2022-10-08T12:05:34.201Z,1012.65
2022-10-08T12:06:34.169Z,1012.63
2022-10-08T12:07:34.194Z,1012.64
2022-10-08T12:08:34.142Z,1012.67
2022-10-08T12:09:34.141Z,1012.68
2022-10-08T12:10:34.140Z,1012.66
2022-10-08T12:11:34.074Z,1012.61
2022-10-08T12:12:34.094Z,1012.71
2022-10-08T12:13:34.074Z,1012.69
2022-10-08T12:14:34.066Z,1012.73
2022-10-08T12:15:34.030Z,1012.74
2022-10-08T12:16:33.998Z,1012.64
2022-10-08T12:17:34.033Z,1012.71
2022-10-08T12:18:33.972Z,1012.67
2022-10-08T12:19:33.995Z,1012.70
2022-10-08T12:20:33.978Z,1012.72
2022-10-08T12:21:33.942Z,1012.77
2022-10-08T12:22:33.911Z,1012.75
2022-10-08T12:23:33.917Z,1012.70
2022-10-08T12:24:33.915Z,1012.71
2022-10-08T12:25:33.925Z,1012.72
2022-10-08T12:26:33.952Z,1012.73
2022-10-08T12:29:34.785Z,1012.73
2022-10-08T12:32:17.556Z,1012.77
2022-10-08T12:33:21.636Z,1012.75
2022-10-08T12:34:18.534Z,1012.81
2022-10-08T12:35:18.565Z,1012.90
2022-10-08T12:36:39.544Z,1012.71
2022-10-08T12:37:39.486Z,1012.78
2022-10-08T12:38:18.538Z,1012.78
2022-10-08T12:39:19.802Z,1012.87
2022-10-08T12:40:18.455Z,1012.80
2022-10-08T12:41:18.452Z,1012.78
2022-10-08T12:42:18.433Z,1012.78
2022-10-08T12:43:18.409Z,1012.78
2022-10-08T12:44:18.396Z,1012.80
2022-10-08T12:45:18.436Z,1012.79
2022-10-08T12:46:18.433Z,1012.82
2022-10-08T12:47:18.700Z,1012.82
2022-10-08T12:48:18.400Z,1012.92
2022-10-08T12:49:54.873Z,1012.88
2022-10-08T12:50:18.306Z,1012.85
2022-10-08T12:51:18.303Z,1012.93
2022-10-08T12:52:18.283Z,1012.90
2022-10-08T12:53:18.269Z,1012.83
2022-10-08T12:54:18.263Z,1012.90
2022-10-08T12:55:24.415Z,1012.95
2022-10-08T12:56:18.248Z,1012.90
2022-10-08T12:57:18.214Z,1012.88
2022-10-08T12:58:18.238Z,1012.93
2022-10-08T12:59:18.213Z,1012.92
2022-10-08T13:00:18.209Z,1012.91
2022-10-08T13:01:18.393Z,1012.93
2022-10-08T13:02:18.287Z,1012.94
2022-10-08T13:03:18.137Z,1012.98
2022-10-08T13:04:18.108Z,1012.99
2022-10-08T13:05:18.135Z,1013.01
2022-10-08T13:06:18.138Z,1013.01
2022-10-08T13:07:18.086Z,1013.02
2022-10-08T13:08:18.054Z,1013.00
2022-10-08T13:09:18.052Z,1012.99
2022-10-08T13:10:18.043Z,1013.00
2022-10-08T13:11:18.117Z,1013.04
2022-10-08T13:12:18.080Z,1013.02
2022-10-08T13:13:18.047Z,1013.08
2022-10-08T13:14:17.975Z,1013.08
2022-10-08T13:15:18.026Z,1013.03
2022-10-08T13:16:18.013Z,1013.03
2022-10-08T13:17:17.980Z,1012.96
2022-10-08T13:18:17.933Z,1013.00
2022-10-08T13:19:17.914Z,1013.03
2022-10-08T13:20:17.983Z,1013.02
2022-10-08T13:21:17.942Z,1013.03
2022-10-08T13:22:17.886Z,1013.01
2022-10-08T13:23:17.907Z,1013.09
2022-10-08T13:24:17.859Z,1013.12
2022-10-08T13:25:19.344Z,1013.07
2022-10-08T13:26:24.147Z,1013.11
2022-10-08T13:45:00.399Z,1013.24
2022-10-08T13:45:59.645Z,1013.21
2022-10-08T13:47:07.558Z,1013.28
2022-10-08T13:47:59.697Z,1013.31
2022-10-08T13:48:59.604Z,1013.30
2022-10-08T13:49:59.589Z,1013.26
2022-10-08T13:50:59.592Z,1013.26
2022-10-08T13:52:30.452Z,1013.30
2022-10-08T13:52:59.567Z,1013.31
2022-10-08T13:54:21.718Z,1013.32
2022-10-08T14:02:11.029Z,1013.66
2022-10-08T14:03:11.926Z,1013.66
2022-10-08T14:04:11.943Z,1013.71
2022-10-08T14:07:53.088Z,1013.94
2022-10-08T14:08:51.939Z,1013.97
2022-10-08T14:09:51.914Z,1014.04
2022-10-08T14:10:51.885Z,1014.14
2022-10-08T14:11:51.873Z,1014.21
2022-10-08T14:12:51.845Z,1014.17
2022-10-08T14:13:51.831Z,1014.20
2022-10-08T14:14:51.811Z,1014.29
2022-10-08T14:15:51.850Z,1014.29
2022-10-08T14:16:51.802Z,1014.35
2022-10-08T14:17:51.812Z,1014.34
2022-10-08T14:18:51.821Z,1014.35
2022-10-08T14:19:51.740Z,1014.30
2022-10-08T14:20:51.740Z,1014.31
2022-10-08T14:21:51.723Z,1014.31
2022-10-08T14:22:51.707Z,1014.31
2022-10-08T14:23:51.692Z,1014.28
2022-10-08T14:24:51.678Z,1014.30
2022-10-08T14:25:51.683Z,1014.29
2022-10-08T14:26:51.697Z,1014.31
2022-10-08T14:27:51.887Z,1014.32
2022-10-08T14:28:51.630Z,1014.30
2022-10-08T14:30:14.702Z,1014.26
2022-10-08T14:30:51.597Z,1014.21
2022-10-08T14:33:46.412Z,1014.27
2022-10-08T14:34:49.500Z,1014.24
2022-10-08T14:52:35.107Z,1014.21
2022-10-08T14:53:13.418Z,1014.19
2022-10-08T14:54:13.422Z,1014.18
2022-10-08T14:55:13.403Z,1014.21
2022-10-08T14:56:13.389Z,1014.21
2022-10-08T14:57:13.405Z,1014.19
2022-10-08T14:58:13.365Z,1014.18
2022-10-08T14:59:13.348Z,1014.19
2022-10-08T15:00:13.375Z,1014.19
2022-10-08T15:01:13.312Z,1014.19
2022-10-08T15:02:13.353Z,1014.16
2022-10-08T15:03:13.285Z,1014.16
2022-10-08T15:04:13.317Z,1014.16
2022-10-08T15:05:13.296Z,1014.20
2022-10-08T15:06:13.245Z,1014.19